Glidden, Iowa
Current Conditions -  °F | °C
As of 10:35 PM on Thursday 18 Dec 2014 (Local Time) from KCIN Reporting Station
Overcast Overcast  
Wind Chill: 21°   Ceiling: 1200
Heat Index: 28°   Visibility: 10mi
Dew Point: 27°   Wind: 7mph
Humidity: 93%   Direction: 150°SSE
Pressure: 30.23"   Gusts: NA
Location:  42.06°N, 94.73°W
Report Text: KCIN 190435Z AUTO 15006KT 10SM OVC012 M02/M03 A3023 RMK AO2
Loading
Personal Weather Stations






























Interactive Weather Map New forecast layout! Learn more

10-Day Weather Forecast

Advertisements
Track Severe Weather on mobile